sensor_id;sensor_type;location;lat;lon;timestamp;temperature;humidity
16503;DHT22;53067;48.114;11.694;2023-02-01T00:02:12;5.10;71.40
16503;DHT22;53067;48.114;11.694;2023-02-01T00:04:40;5.10;71.10
16503;DHT22;53067;48.114;11.694;2023-02-01T00:07:07;5.10;71.50
16503;DHT22;53067;48.114;11.694;2023-02-01T00:09:35;5.10;71.80
16503;DHT22;53067;48.114;11.694;2023-02-01T00:12:02;5.20;71.20
16503;DHT22;53067;48.114;11.694;2023-02-01T00:14:30;5.10;71.30
16503;DHT22;53067;48.114;11.694;2023-02-01T00:16:59;5.20;71.10
16503;DHT22;53067;48.114;11.694;2023-02-01T00:19:27;5.20;70.90
16503;DHT22;53067;48.114;11.694;2023-02-01T00:21:54;5.20;70.80
16503;DHT22;53067;48.114;11.694;2023-02-01T00:24:22;5.20;70.70
16503;DHT22;53067;48.114;11.694;2023-02-01T00:26:50;5.30;70.40
16503;DHT22;53067;48.114;11.694;2023-02-01T00:29:19;5.30;70.20
16503;DHT22;53067;48.114;11.694;2023-02-01T00:31:49;5.30;70.00
16503;DHT22;53067;48.114;11.694;2023-02-01T00:34:16;5.30;70.00
16503;DHT22;53067;48.114;11.694;2023-02-01T00:36:45;5.30;69.90
16503;DHT22;53067;48.114;11.694;2023-02-01T00:39:13;5.40;69.70
16503;DHT22;53067;48.114;11.694;2023-02-01T00:41:41;5.40;69.60
16503;DHT22;53067;48.114;11.694;2023-02-01T00:44:08;5.40;69.70
16503;DHT22;53067;48.114;11.694;2023-02-01T00:46:36;5.40;69.80
16503;DHT22;53067;48.114;11.694;2023-02-01T00:49:04;5.40;69.70
16503;DHT22;53067;48.114;11.694;2023-02-01T00:51:33;5.40;70.10
16503;DHT22;53067;48.114;11.694;2023-02-01T00:54:00;5.40;70.60
16503;DHT22;53067;48.114;11.694;2023-02-01T00:56:29;5.40;71.70
16503;DHT22;53067;48.114;11.694;2023-02-01T00:58:57;5.30;72.50
16503;DHT22;53067;48.114;11.694;2023-02-01T01:01:26;5.30;73.90
16503;DHT22;53067;48.114;11.694;2023-02-01T01:03:56;5.10;75.60
16503;DHT22;53067;48.114;11.694;2023-02-01T01:06:26;4.90;77.00
16503;DHT22;53067;48.114;11.694;2023-02-01T01:08:56;4.80;78.10
16503;DHT22;53067;48.114;11.694;2023-02-01T01:11:26;4.70;79.30
16503;DHT22;53067;48.114;11.694;2023-02-01T01:13:56;4.60;80.10
16503;DHT22;53067;48.114;11.694;2023-02-01T01:16:25;4.60;80.50
16503;DHT22;53067;48.114;11.694;2023-02-01T01:19:12;4.50;81.30
16503;DHT22;53067;48.114;11.694;2023-02-01T01:21:39;4.50;80.50
16503;DHT22;53067;48.114;11.694;2023-02-01T01:24:07;4.40;80.80
16503;DHT22;53067;48.114;11.694;2023-02-01T01:26:34;4.40;80.90
16503;DHT22;53067;48.114;11.694;2023-02-01T01:29:02;4.40;81.00
16503;DHT22;53067;48.114;11.694;2023-02-01T01:31:30;4.40;81.00
16503;DHT22;53067;48.114;11.694;2023-02-01T01:33:59;4.40;80.70
16503;DHT22;53067;48.114;11.694;2023-02-01T01:36:27;4.50;81.20
16503;DHT22;53067;48.114;11.694;2023-02-01T01:38:55;4.50;81.10
16503;DHT22;53067;48.114;11.694;2023-02-01T01:41:28;4.50;80.80
16503;DHT22;53067;48.114;11.694;2023-02-01T01:44:06;4.50;80.70
16503;DHT22;53067;48.114;11.694;2023-02-01T01:46:38;4.50;81.20
16503;DHT22;53067;48.114;11.694;2023-02-01T01:49:21;4.50;81.50
16503;DHT22;53067;48.114;11.694;2023-02-01T01:54:35;4.50;82.50
16503;DHT22;53067;48.114;11.694;2023-02-01T01:57:01;4.40;83.10
16503;DHT22;53067;48.114;11.694;2023-02-01T01:59:30;4.30;83.50
16503;DHT22;53067;48.114;11.694;2023-02-01T02:01:59;4.30;83.70
16503;DHT22;53067;48.114;11.694;2023-02-01T02:04:26;4.30;83.80
16503;DHT22;53067;48.114;11.694;2023-02-01T02:07:05;4.30;83.90
16503;DHT22;53067;48.114;11.694;2023-02-01T02:09:33;4.30;84.20
16503;DHT22;53067;48.114;11.694;2023-02-01T02:12:01;4.20;84.20
16503;DHT22;53067;48.114;11.694;2023-02-01T02:14:29;4.20;85.50
16503;DHT22;53067;48.114;11.694;2023-02-01T02:22:42;4.20;84.60
16503;DHT22;53067;48.114;11.694;2023-02-01T02:28:00;4.20;84.40
16503;DHT22;53067;48.114;11.694;2023-02-01T02:38:53;4.10;84.70
16503;DHT22;53067;48.114;11.694;2023-02-01T02:41:22;3.90;84.70
16503;DHT22;53067;48.114;11.694;2023-02-01T02:44:38;4.20;84.50
16503;DHT22;53067;48.114;11.694;2023-02-01T02:47:27;4.20;84.40
16503;DHT22;53067;48.114;11.694;2023-02-01T02:50:02;4.30;84.40
16503;DHT22;53067;48.114;11.694;2023-02-01T02:52:50;4.30;84.40
16503;DHT22;53067;48.114;11.694;2023-02-01T02:55:35;4.30;84.10
16503;DHT22;53067;48.114;11.694;2023-02-01T02:58:05;4.30;84.00
16503;DHT22;53067;48.114;11.694;2023-02-01T03:00:53;4.30;84.00
16503;DHT22;53067;48.114;11.694;2023-02-01T03:03:40;4.30;84.00
16503;DHT22;53067;48.114;11.694;2023-02-01T03:06:26;4.40;83.90
16503;DHT22;53067;48.114;11.694;2023-02-01T03:08:56;4.40;83.90
16503;DHT22;53067;48.114;11.694;2023-02-01T03:11:25;4.40;83.70
16503;DHT22;53067;48.114;11.694;2023-02-01T03:14:00;4.40;83.40
16503;DHT22;53067;48.114;11.694;2023-02-01T03:16:49;4.50;83.20
16503;DHT22;53067;48.114;11.694;2023-02-01T03:19:33;4.50;83.00
16503;DHT22;53067;48.114;11.694;2023-02-01T03:22:06;4.50;82.80
16503;DHT22;53067;48.114;11.694;2023-02-01T03:27:13;4.60;82.70
16503;DHT22;53067;48.114;11.694;2023-02-01T03:29:49;4.50;82.50
16503;DHT22;53067;48.114;11.694;2023-02-01T03:32:17;4.50;82.30
16503;DHT22;53067;48.114;11.694;2023-02-01T03:34:46;4.50;82.50
16503;DHT22;53067;48.114;11.694;2023-02-01T03:37:18;4.60;82.30
16503;DHT22;53067;48.114;11.694;2023-02-01T03:39:59;4.60;82.10
16503;DHT22;53067;48.114;11.694;2023-02-01T03:42:31;4.60;82.00
16503;DHT22;53067;48.114;11.694;2023-02-01T03:47:37;4.60;81.70
16503;DHT22;53067;48.114;11.694;2023-02-01T03:50:08;4.60;81.60
16503;DHT22;53067;48.114;11.694;2023-02-01T03:55:11;4.60;81.30
16503;DHT22;53067;48.114;11.694;2023-02-01T03:57:44;4.70;81.30
16503;DHT22;53067;48.114;11.694;2023-02-01T04:00:19;4.70;81.20
16503;DHT22;53067;48.114;11.694;2023-02-01T04:02:48;4.70;81.10
16503;DHT22;53067;48.114;11.694;2023-02-01T04:05:16;4.70;80.90
16503;DHT22;53067;48.114;11.694;2023-02-01T04:07:44;4.70;80.70
16503;DHT22;53067;48.114;11.694;2023-02-01T04:10:14;4.70;80.70
16503;DHT22;53067;48.114;11.694;2023-02-01T04:12:42;4.70;80.50
16503;DHT22;53067;48.114;11.694;2023-02-01T04:15:09;4.70;80.40
16503;DHT22;53067;48.114;11.694;2023-02-01T04:17:37;4.70;80.20
16503;DHT22;53067;48.114;11.694;2023-02-01T04:20:05;4.70;80.10
16503;DHT22;53067;48.114;11.694;2023-02-01T04:22:33;4.80;80.10
16503;DHT22;53067;48.114;11.694;2023-02-01T04:25:00;4.80;80.00
16503;DHT22;53067;48.114;11.694;2023-02-01T04:27:28;4.80;79.30
16503;DHT22;53067;48.114;11.694;2023-02-01T04:29:55;4.80;79.40
16503;DHT22;53067;48.114;11.694;2023-02-01T04:32:23;4.90;79.50
16503;DHT22;53067;48.114;11.694;2023-02-01T04:34:50;4.90;79.20
16503;DHT22;53067;48.114;11.694;2023-02-01T04:37:18;4.90;79.20
16503;DHT22;53067;48.114;11.694;2023-02-01T04:39:45;4.90;79.10
16503;DHT22;53067;48.114;11.694;2023-02-01T04:42:13;4.90;79.00
16503;DHT22;53067;48.114;11.694;2023-02-01T04:44:40;4.90;78.80
16503;DHT22;53067;48.114;11.694;2023-02-01T04:47:08;4.80;78.80
16503;DHT22;53067;48.114;11.694;2023-02-01T04:49:36;4.90;78.90
16503;DHT22;53067;48.114;11.694;2023-02-01T04:52:03;4.90;78.80
16503;DHT22;53067;48.114;11.694;2023-02-01T04:54:31;4.90;78.60
16503;DHT22;53067;48.114;11.694;2023-02-01T04:56:59;4.90;78.20
16503;DHT22;53067;48.114;11.694;2023-02-01T04:59:27;4.90;78.30
16503;DHT22;53067;48.114;11.694;2023-02-01T05:01:55;4.90;78.40
16503;DHT22;53067;48.114;11.694;2023-02-01T05:04:22;4.90;78.30
16503;DHT22;53067;48.114;11.694;2023-02-01T05:06:50;4.90;78.20
16503;DHT22;53067;48.114;11.694;2023-02-01T05:09:17;4.90;77.90
16503;DHT22;53067;48.114;11.694;2023-02-01T05:11:45;4.90;77.90
16503;DHT22;53067;48.114;11.694;2023-02-01T05:14:30;5.00;77.80
16503;DHT22;53067;48.114;11.694;2023-02-01T05:16:58;4.90;77.70
16503;DHT22;53067;48.114;11.694;2023-02-01T05:19:25;4.90;77.50
16503;DHT22;53067;48.114;11.694;2023-02-01T05:21:53;4.90;77.60
16503;DHT22;53067;48.114;11.694;2023-02-01T05:24:20;4.90;77.60
16503;DHT22;53067;48.114;11.694;2023-02-01T05:26:48;4.90;77.50
16503;DHT22;53067;48.114;11.694;2023-02-01T05:29:18;4.90;77.60
16503;DHT22;53067;48.114;11.694;2023-02-01T05:31:46;4.90;77.40
16503;DHT22;53067;48.114;11.694;2023-02-01T05:34:15;4.90;77.50
16503;DHT22;53067;48.114;11.694;2023-02-01T05:36:43;4.90;77.20
16503;DHT22;53067;48.114;11.694;2023-02-01T05:39:10;4.90;77.20
16503;DHT22;53067;48.114;11.694;2023-02-01T05:41:38;5.00;77.40
16503;DHT22;53067;48.114;11.694;2023-02-01T05:44:05;5.00;76.90
16503;DHT22;53067;48.114;11.694;2023-02-01T05:46:35;5.00;76.80
16503;DHT22;53067;48.114;11.694;2023-02-01T05:49:03;5.00;77.00
16503;DHT22;53067;48.114;11.694;2023-02-01T05:51:31;4.90;77.80
16503;DHT22;53067;48.114;11.694;2023-02-01T05:53:59;4.90;77.00
16503;DHT22;53067;48.114;11.694;2023-02-01T05:56:27;4.90;77.10
16503;DHT22;53067;48.114;11.694;2023-02-01T05:58:55;4.80;77.20
16503;DHT22;53067;48.114;11.694;2023-02-01T06:01:22;4.80;77.40
16503;DHT22;53067;48.114;11.694;2023-02-01T06:03:50;4.90;77.50
16503;DHT22;53067;48.114;11.694;2023-02-01T06:06:17;4.80;77.40
16503;DHT22;53067;48.114;11.694;2023-02-01T06:08:46;4.80;77.50
16503;DHT22;53067;48.114;11.694;2023-02-01T06:11:13;4.80;77.50
16503;DHT22;53067;48.114;11.694;2023-02-01T06:13:41;4.80;77.60
16503;DHT22;53067;48.114;11.694;2023-02-01T06:16:09;4.80;77.90
16503;DHT22;53067;48.114;11.694;2023-02-01T06:18:36;4.80;77.60
16503;DHT22;53067;48.114;11.694;2023-02-01T06:21:04;4.80;77.60
16503;DHT22;53067;48.114;11.694;2023-02-01T06:23:32;4.90;77.50
16503;DHT22;53067;48.114;11.694;2023-02-01T06:26:05;4.90;77.50
16503;DHT22;53067;48.114;11.694;2023-02-01T06:28:35;4.90;77.50
16503;DHT22;53067;48.114;11.694;2023-02-01T06:31:06;4.90;77.50
16503;DHT22;53067;48.114;11.694;2023-02-01T06:33:34;4.90;77.30
16503;DHT22;53067;48.114;11.694;2023-02-01T06:36:05;4.90;77.00
16503;DHT22;53067;48.114;11.694;2023-02-01T06:38:33;4.90;77.00
16503;DHT22;53067;48.114;11.694;2023-02-01T06:41:03;4.90;77.10
16503;DHT22;53067;48.114;11.694;2023-02-01T06:43:31;4.90;77.20
16503;DHT22;53067;48.114;11.694;2023-02-01T06:46:03;4.90;77.30
16503;DHT22;53067;48.114;11.694;2023-02-01T06:48:32;4.90;77.30
16503;DHT22;53067;48.114;11.694;2023-02-01T06:51:00;4.80;77.30
16503;DHT22;53067;48.114;11.694;2023-02-01T06:53:27;4.90;77.10
16503;DHT22;53067;48.114;11.694;2023-02-01T06:56:00;4.90;77.70
16503;DHT22;53067;48.114;11.694;2023-02-01T06:58:32;4.90;77.10
16503;DHT22;53067;48.114;11.694;2023-02-01T07:01:05;4.80;77.10
16503;DHT22;53067;48.114;11.694;2023-02-01T07:03:33;4.90;77.30
16503;DHT22;53067;48.114;11.694;2023-02-01T07:06:00;4.90;77.20
16503;DHT22;53067;48.114;11.694;2023-02-01T07:08:29;4.90;77.00
16503;DHT22;53067;48.114;11.694;2023-02-01T07:10:57;4.90;77.00
16503;DHT22;53067;48.114;11.694;2023-02-01T07:13:26;4.90;77.00
16503;DHT22;53067;48.114;11.694;2023-02-01T07:15:53;4.90;76.90
16503;DHT22;53067;48.114;11.694;2023-02-01T07:18:21;5.00;76.90
16503;DHT22;53067;48.114;11.694;2023-02-01T07:20:51;5.00;76.90
16503;DHT22;53067;48.114;11.694;2023-02-01T07:23:19;4.90;77.00
16503;DHT22;53067;48.114;11.694;2023-02-01T07:25:47;5.00;77.00
16503;DHT22;53067;48.114;11.694;2023-02-01T07:28:16;5.00;77.00
16503;DHT22;53067;48.114;11.694;2023-02-01T07:30:43;5.00;77.00
16503;DHT22;53067;48.114;11.694;2023-02-01T07:33:13;5.00;76.60
16503;DHT22;53067;48.114;11.694;2023-02-01T07:35:40;5.10;76.50
16503;DHT22;53067;48.114;11.694;2023-02-01T07:38:08;5.00;76.20
16503;DHT22;53067;48.114;11.694;2023-02-01T07:40:35;5.00;75.90
16503;DHT22;53067;48.114;11.694;2023-02-01T07:43:03;5.10;75.90
16503;DHT22;53067;48.114;11.694;2023-02-01T07:45:33;5.10;75.90
16503;DHT22;53067;48.114;11.694;2023-02-01T07:48:01;5.10;75.80
16503;DHT22;53067;48.114;11.694;2023-02-01T07:50:30;5.10;75.70
16503;DHT22;53067;48.114;11.694;2023-02-01T07:53:00;5.20;75.40
16503;DHT22;53067;48.114;11.694;2023-02-01T07:55:33;5.10;74.80
16503;DHT22;53067;48.114;11.694;2023-02-01T07:58:02;5.10;74.60
16503;DHT22;53067;48.114;11.694;2023-02-01T08:00:30;5.10;74.90
16503;DHT22;53067;48.114;11.694;2023-02-01T08:03:15;5.20;74.50
16503;DHT22;53067;48.114;11.694;2023-02-01T08:05:43;5.20;74.40
16503;DHT22;53067;48.114;11.694;2023-02-01T08:08:11;5.20;73.80
16503;DHT22;53067;48.114;11.694;2023-02-01T08:10:39;5.30;74.10
16503;DHT22;53067;48.114;11.694;2023-02-01T08:13:06;5.30;73.80
16503;DHT22;53067;48.114;11.694;2023-02-01T08:15:34;5.40;73.40
16503;DHT22;53067;48.114;11.694;2023-02-01T08:18:01;5.40;72.90
16503;DHT22;53067;48.114;11.694;2023-02-01T08:20:29;5.50;72.90
16503;DHT22;53067;48.114;11.694;2023-02-01T08:22:57;5.50;72.50
16503;DHT22;53067;48.114;11.694;2023-02-01T08:25:24;5.50;72.20
16503;DHT22;53067;48.114;11.694;2023-02-01T08:27:52;5.50;71.80
16503;DHT22;53067;48.114;11.694;2023-02-01T08:30:21;5.60;71.60
16503;DHT22;53067;48.114;11.694;2023-02-01T08:32:48;5.60;71.80
16503;DHT22;53067;48.114;11.694;2023-02-01T08:35:16;5.60;71.40
16503;DHT22;53067;48.114;11.694;2023-02-01T08:37:43;5.60;71.30
16503;DHT22;53067;48.114;11.694;2023-02-01T08:40:11;5.60;71.00
16503;DHT22;53067;48.114;11.694;2023-02-01T08:42:40;5.60;71.00
16503;DHT22;53067;48.114;11.694;2023-02-01T08:45:22;5.60;70.80
16503;DHT22;53067;48.114;11.694;2023-02-01T08:47:54;5.70;70.90
16503;DHT22;53067;48.114;11.694;2023-02-01T08:50:22;5.70;70.40
16503;DHT22;53067;48.114;11.694;2023-02-01T08:52:51;5.70;70.60
16503;DHT22;53067;48.114;11.694;2023-02-01T08:55:19;5.80;70.00
16503;DHT22;53067;48.114;11.694;2023-02-01T08:57:47;5.80;70.00
16503;DHT22;53067;48.114;11.694;2023-02-01T09:00:16;5.80;69.90
16503;DHT22;53067;48.114;11.694;2023-02-01T09:02:45;5.80;69.70
16503;DHT22;53067;48.114;11.694;2023-02-01T09:05:12;5.80;69.80
16503;DHT22;53067;48.114;11.694;2023-02-01T09:07:42;5.80;69.70
16503;DHT22;53067;48.114;11.694;2023-02-01T09:10:10;5.90;69.20
16503;DHT22;53067;48.114;11.694;2023-02-01T09:12:39;5.90;69.50
16503;DHT22;53067;48.114;11.694;2023-02-01T09:15:07;5.90;69.30
16503;DHT22;53067;48.114;11.694;2023-02-01T09:17:35;6.00;68.60
16503;DHT22;53067;48.114;11.694;2023-02-01T09:20:04;6.00;68.70
16503;DHT22;53067;48.114;11.694;2023-02-01T09:22:31;6.10;68.60
16503;DHT22;53067;48.114;11.694;2023-02-01T09:24:59;6.10;68.10
16503;DHT22;53067;48.114;11.694;2023-02-01T09:27:26;6.10;68.30
16503;DHT22;53067;48.114;11.694;2023-02-01T09:29:54;6.10;68.30
16503;DHT22;53067;48.114;11.694;2023-02-01T09:32:23;6.10;68.20
16503;DHT22;53067;48.114;11.694;2023-02-01T09:34:52;6.20;68.30
16503;DHT22;53067;48.114;11.694;2023-02-01T09:37:22;6.20;68.10
16503;DHT22;53067;48.114;11.694;2023-02-01T09:39:49;6.20;68.30
16503;DHT22;53067;48.114;11.694;2023-02-01T09:45:24;6.20;68.30
16503;DHT22;53067;48.114;11.694;2023-02-01T09:48:01;6.20;68.40
16503;DHT22;53067;48.114;11.694;2023-02-01T09:50:32;6.20;69.00
16503;DHT22;53067;48.114;11.694;2023-02-01T09:53:04;6.20;68.50
16503;DHT22;53067;48.114;11.694;2023-02-01T09:55:35;6.30;68.10
16503;DHT22;53067;48.114;11.694;2023-02-01T09:58:11;6.30;68.20
16503;DHT22;53067;48.114;11.694;2023-02-01T10:00:39;6.30;68.60
16503;DHT22;53067;48.114;11.694;2023-02-01T10:03:11;6.40;68.40
16503;DHT22;53067;48.114;11.694;2023-02-01T10:11:38;6.40;67.40
16503;DHT22;53067;48.114;11.694;2023-02-01T10:17:12;6.30;68.10
16503;DHT22;53067;48.114;11.694;2023-02-01T10:27:41;6.40;68.10
16503;DHT22;53067;48.114;11.694;2023-02-01T10:30:18;6.40;67.70
16503;DHT22;53067;48.114;11.694;2023-02-01T10:32:45;6.40;67.50
16503;DHT22;53067;48.114;11.694;2023-02-01T10:35:18;6.40;67.90
16503;DHT22;53067;48.114;11.694;2023-02-01T10:37:46;6.30;68.00
16503;DHT22;53067;48.114;11.694;2023-02-01T10:40:24;6.30;68.40
16503;DHT22;53067;48.114;11.694;2023-02-01T10:42:53;6.40;68.20
16503;DHT22;53067;48.114;11.694;2023-02-01T10:45:23;6.40;68.20
16503;DHT22;53067;48.114;11.694;2023-02-01T10:47:53;6.40;68.20
16503;DHT22;53067;48.114;11.694;2023-02-01T10:50:41;6.40;68.40
16503;DHT22;53067;48.114;11.694;2023-02-01T10:53:21;6.40;68.00
16503;DHT22;53067;48.114;11.694;2023-02-01T10:55:51;6.40;68.20
16503;DHT22;53067;48.114;11.694;2023-02-01T10:58:30;6.40;68.40
16503;DHT22;53067;48.114;11.694;2023-02-01T11:01:07;6.40;68.50
16503;DHT22;53067;48.114;11.694;2023-02-01T11:03:55;6.40;68.50
16503;DHT22;53067;48.114;11.694;2023-02-01T11:14:30;6.30;69.00
16503;DHT22;53067;48.114;11.694;2023-02-01T11:16:58;6.20;69.40
16503;DHT22;53067;48.114;11.694;2023-02-01T11:19:27;6.20;69.70
16503;DHT22;53067;48.114;11.694;2023-02-01T11:21:57;6.20;69.80
16503;DHT22;53067;48.114;11.694;2023-02-01T11:24:33;6.10;69.40
16503;DHT22;53067;48.114;11.694;2023-02-01T11:27:12;6.10;70.00
16503;DHT22;53067;48.114;11.694;2023-02-01T11:29:44;6.20;69.30
16503;DHT22;53067;48.114;11.694;2023-02-01T11:32:13;6.20;69.80
16503;DHT22;53067;48.114;11.694;2023-02-01T11:34:51;6.20;70.00
16503;DHT22;53067;48.114;11.694;2023-02-01T11:37:30;6.30;70.00
16503;DHT22;53067;48.114;11.694;2023-02-01T11:40:00;6.30;69.80
16503;DHT22;53067;48.114;11.694;2023-02-01T11:42:32;6.30;69.40
16503;DHT22;53067;48.114;11.694;2023-02-01T11:45:28;6.30;69.40
16503;DHT22;53067;48.114;11.694;2023-02-01T11:47:57;6.30;69.60
16503;DHT22;53067;48.114;11.694;2023-02-01T11:57:01;6.10;69.80
16503;DHT22;53067;48.114;11.694;2023-02-01T11:59:46;6.00;70.30
16503;DHT22;53067;48.114;11.694;2023-02-01T12:05:27;6.00;70.60
16503;DHT22;53067;48.114;11.694;2023-02-01T12:08:28;5.90;71.00
16503;DHT22;53067;48.114;11.694;2023-02-01T12:11:14;5.90;70.60
16503;DHT22;53067;48.114;11.694;2023-02-01T12:13:50;5.90;70.80
16503;DHT22;53067;48.114;11.694;2023-02-01T12:21:46;5.90;70.70
16503;DHT22;53067;48.114;11.694;2023-02-01T12:24:38;6.00;70.70
16503;DHT22;53067;48.114;11.694;2023-02-01T12:27:56;6.00;69.90
16503;DHT22;53067;48.114;11.694;2023-02-01T12:44:04;5.90;70.50
16503;DHT22;53067;48.114;11.694;2023-02-01T12:46:48;5.90;70.20
16503;DHT22;53067;48.114;11.694;2023-02-01T12:49:22;5.80;70.10
16503;DHT22;53067;48.114;11.694;2023-02-01T12:51:54;5.80;70.00
16503;DHT22;53067;48.114;11.694;2023-02-01T12:54:26;5.90;69.80
16503;DHT22;53067;48.114;11.694;2023-02-01T12:56:56;5.90;69.80
16503;DHT22;53067;48.114;11.694;2023-02-01T12:59:37;5.90;69.30
16503;DHT22;53067;48.114;11.694;2023-02-01T13:10:46;5.90;68.60
16503;DHT22;53067;48.114;11.694;2023-02-01T13:13:22;6.00;68.10
16503;DHT22;53067;48.114;11.694;2023-02-01T13:18:38;6.00;67.60
16503;DHT22;53067;48.114;11.694;2023-02-01T13:21:18;6.10;68.10
16503;DHT22;53067;48.114;11.694;2023-02-01T13:23:48;6.00;67.60
16503;DHT22;53067;48.114;11.694;2023-02-01T13:26:15;6.00;67.70
16503;DHT22;53067;48.114;11.694;2023-02-01T13:31:29;6.20;68.10
16503;DHT22;53067;48.114;11.694;2023-02-01T13:42:13;6.20;68.60
16503;DHT22;53067;48.114;11.694;2023-02-01T13:44:37;6.10;69.00
16503;DHT22;53067;48.114;11.694;2023-02-01T13:49:37;6.20;69.50
16503;DHT22;53067;48.114;11.694;2023-02-01T13:52:04;6.20;69.60
16503;DHT22;53067;48.114;11.694;2023-02-01T13:54:37;6.20;69.60
16503;DHT22;53067;48.114;11.694;2023-02-01T13:57:14;6.20;69.80
16503;DHT22;53067;48.114;11.694;2023-02-01T14:08:12;6.00;71.30
16503;DHT22;53067;48.114;11.694;2023-02-01T14:10:55;6.00;71.60
16503;DHT22;53067;48.114;11.694;2023-02-01T14:13:40;6.00;71.60
16503;DHT22;53067;48.114;11.694;2023-02-01T14:16:13;6.00;71.70
16503;DHT22;53067;48.114;11.694;2023-02-01T14:21:28;6.00;71.70
16503;DHT22;53067;48.114;11.694;2023-02-01T14:24:01;6.00;71.40
16503;DHT22;53067;48.114;11.694;2023-02-01T14:26:41;6.00;71.30
16503;DHT22;53067;48.114;11.694;2023-02-01T14:37:11;5.90;70.80
16503;DHT22;53067;48.114;11.694;2023-02-01T14:50:39;5.90;69.60
16503;DHT22;53067;48.114;11.694;2023-02-01T14:53:22;5.90;68.90
16503;DHT22;53067;48.114;11.694;2023-02-01T14:55:58;5.90;69.20
16503;DHT22;53067;48.114;11.694;2023-02-01T15:01:27;5.90;68.80
16503;DHT22;53067;48.114;11.694;2023-02-01T15:04:12;5.90;68.70
16503;DHT22;53067;48.114;11.694;2023-02-01T15:09:17;5.90;69.20
16503;DHT22;53067;48.114;11.694;2023-02-01T15:12:04;5.90;69.10
16503;DHT22;53067;48.114;11.694;2023-02-01T15:14:44;5.90;69.00
16503;DHT22;53067;48.114;11.694;2023-02-01T15:17:25;5.90;69.20
16503;DHT22;53067;48.114;11.694;2023-02-01T15:20:01;5.90;69.40
16503;DHT22;53067;48.114;11.694;2023-02-01T15:22:31;5.90;69.10
16503;DHT22;53067;48.114;11.694;2023-02-01T15:24:59;5.90;69.30
16503;DHT22;53067;48.114;11.694;2023-02-01T15:27:28;5.90;69.60
16503;DHT22;53067;48.114;11.694;2023-02-01T15:30:21;5.90;69.80
16503;DHT22;53067;48.114;11.694;2023-02-01T15:32:46;5.90;70.20
16503;DHT22;53067;48.114;11.694;2023-02-01T15:41:11;5.70;71.00
16503;DHT22;53067;48.114;11.694;2023-02-01T15:46:33;5.50;72.40
16503;DHT22;53067;48.114;11.694;2023-02-01T15:49:02;5.50;73.00
16503;DHT22;53067;48.114;11.694;2023-02-01T15:51:32;5.50;73.80
16503;DHT22;53067;48.114;11.694;2023-02-01T15:54:02;5.50;74.20
16503;DHT22;53067;48.114;11.694;2023-02-01T15:56:38;5.40;74.90
16503;DHT22;53067;48.114;11.694;2023-02-01T15:59:15;5.40;75.20
16503;DHT22;53067;48.114;11.694;2023-02-01T16:01:44;5.30;75.40
16503;DHT22;53067;48.114;11.694;2023-02-01T16:04:23;5.30;75.50
16503;DHT22;53067;48.114;11.694;2023-02-01T16:06:54;5.30;75.30
16503;DHT22;53067;48.114;11.694;2023-02-01T16:09:39;5.30;75.20
16503;DHT22;53067;48.114;11.694;2023-02-01T16:12:32;5.30;75.10
16503;DHT22;53067;48.114;11.694;2023-02-01T16:15:02;5.20;75.00
16503;DHT22;53067;48.114;11.694;2023-02-01T16:17:30;5.20;74.60
16503;DHT22;53067;48.114;11.694;2023-02-01T16:19:57;5.20;74.70
16503;DHT22;53067;48.114;11.694;2023-02-01T16:22:25;5.20;74.40
16503;DHT22;53067;48.114;11.694;2023-02-01T16:24:52;5.20;73.90
16503;DHT22;53067;48.114;11.694;2023-02-01T16:27:20;5.20;74.00
16503;DHT22;53067;48.114;11.694;2023-02-01T16:29:49;5.20;73.40
16503;DHT22;53067;48.114;11.694;2023-02-01T16:32:18;5.20;73.40
16503;DHT22;53067;48.114;11.694;2023-02-01T16:34:47;5.20;72.80
16503;DHT22;53067;48.114;11.694;2023-02-01T16:37:22;5.20;72.80
16503;DHT22;53067;48.114;11.694;2023-02-01T16:39:46;5.20;72.60
16503;DHT22;53067;48.114;11.694;2023-02-01T16:42:14;5.30;72.60
16503;DHT22;53067;48.114;11.694;2023-02-01T16:44:43;5.20;72.30
16503;DHT22;53067;48.114;11.694;2023-02-01T16:47:19;5.20;72.10
16503;DHT22;53067;48.114;11.694;2023-02-01T16:49:47;5.30;72.00
16503;DHT22;53067;48.114;11.694;2023-02-01T16:52:20;5.20;72.00
16503;DHT22;53067;48.114;11.694;2023-02-01T16:54:48;5.20;72.10
16503;DHT22;53067;48.114;11.694;2023-02-01T16:57:17;5.30;72.10
16503;DHT22;53067;48.114;11.694;2023-02-01T16:59:46;5.30;71.80
16503;DHT22;53067;48.114;11.694;2023-02-01T17:02:18;5.30;71.70
16503;DHT22;53067;48.114;11.694;2023-02-01T17:04:50;5.30;71.70
16503;DHT22;53067;48.114;11.694;2023-02-01T17:07:18;5.40;71.40
16503;DHT22;53067;48.114;11.694;2023-02-01T17:09:47;5.30;71.30
16503;DHT22;53067;48.114;11.694;2023-02-01T17:12:26;5.30;70.50
16503;DHT22;53067;48.114;11.694;2023-02-01T17:14:55;5.40;70.50
16503;DHT22;53067;48.114;11.694;2023-02-01T17:17:30;5.40;70.50
16503;DHT22;53067;48.114;11.694;2023-02-01T17:19:53;5.40;69.50
16503;DHT22;53067;48.114;11.694;2023-02-01T17:22:22;5.50;69.30
16503;DHT22;53067;48.114;11.694;2023-02-01T17:24:50;5.50;68.80
16503;DHT22;53067;48.114;11.694;2023-02-01T17:27:19;5.50;68.40
16503;DHT22;53067;48.114;11.694;2023-02-01T17:29:46;5.50;68.10
16503;DHT22;53067;48.114;11.694;2023-02-01T17:32:20;5.50;67.80
16503;DHT22;53067;48.114;11.694;2023-02-01T17:34:49;5.50;67.90
16503;DHT22;53067;48.114;11.694;2023-02-01T17:37:25;5.60;67.70
16503;DHT22;53067;48.114;11.694;2023-02-01T17:39:53;5.60;67.70
16503;DHT22;53067;48.114;11.694;2023-02-01T17:42:21;5.60;67.40
16503;DHT22;53067;48.114;11.694;2023-02-01T17:44:55;5.60;67.20
16503;DHT22;53067;48.114;11.694;2023-02-01T17:47:21;5.60;67.30
16503;DHT22;53067;48.114;11.694;2023-02-01T17:49:49;5.60;66.90
16503;DHT22;53067;48.114;11.694;2023-02-01T17:52:18;5.60;67.20
16503;DHT22;53067;48.114;11.694;2023-02-01T17:54:46;5.70;66.80
16503;DHT22;53067;48.114;11.694;2023-02-01T17:57:15;5.70;66.80
16503;DHT22;53067;48.114;11.694;2023-02-01T17:59:43;5.70;66.80
16503;DHT22;53067;48.114;11.694;2023-02-01T18:02:22;5.70;66.80
16503;DHT22;53067;48.114;11.694;2023-02-01T18:04:50;5.70;66.50
16503;DHT22;53067;48.114;11.694;2023-02-01T18:07:18;5.70;66.60
16503;DHT22;53067;48.114;11.694;2023-02-01T18:09:45;5.70;66.20
16503;DHT22;53067;48.114;11.694;2023-02-01T18:12:17;5.70;66.10
16503;DHT22;53067;48.114;11.694;2023-02-01T18:14:43;5.70;65.90
16503;DHT22;53067;48.114;11.694;2023-02-01T18:17:11;5.80;65.90
16503;DHT22;53067;48.114;11.694;2023-02-01T18:19:39;5.80;65.60
16503;DHT22;53067;48.114;11.694;2023-02-01T18:22:14;5.80;65.40
16503;DHT22;53067;48.114;11.694;2023-02-01T18:24:43;5.80;65.30
16503;DHT22;53067;48.114;11.694;2023-02-01T18:27:10;5.80;65.30
16503;DHT22;53067;48.114;11.694;2023-02-01T18:29:38;5.80;65.20